Time;durP1;ratioP1;P1;durP2;ratioP2;P2;SDS_P1;SDS_P2;PMS_P1;PMS_P2;Temp;Humidity;BMP_temperature;BMP_pressure;BME280_temperature;BME280_humidity;BME280_pressure;Samples;Min_cycle;Max_cycle;Signal;HPM_P1;HPM_P2
2023/12/24 00:01:45;;;;;;;5.60;5.50;;;10.20;99.90;;;;;;5044332;28;20452;-71
2023/12/24 00:04:13;;;;;;;5.20;5.10;;;10.20;99.90;;;;;;5047020;28;20547;-71
2023/12/24 00:06:40;;;;;;;5.30;5.20;;;10.20;99.90;;;;;;5044307;28;20456;-70
2023/12/24 00:09:07;;;;;;;4.60;4.60;;;10.20;99.90;;;;;;5041522;28;20468;-70
2023/12/24 00:11:34;;;;;;;4.30;4.30;;;10.10;99.90;;;;;;5046794;28;20459;-71
2023/12/24 00:14:00;;;;;;;4.50;4.50;;;10.10;99.90;;;;;;5034975;28;20461;-71
2023/12/24 00:16:27;;;;;;;4.20;4.20;;;10.10;99.90;;;;;;5040516;28;20477;-71
2023/12/24 00:18:54;;;;;;;3.77;3.77;;;10.10;99.90;;;;;;5048748;28;20456;-70
2023/12/24 00:21:22;;;;;;;3.50;3.50;;;10.10;99.90;;;;;;5044595;28;20467;-71
2023/12/24 00:23:49;;;;;;;3.40;3.40;;;10.00;99.90;;;;;;5034893;28;20457;-71
2023/12/24 00:26:16;;;;;;;2.50;2.50;;;10.10;99.90;;;;;;5032403;28;20946;-72
2023/12/24 00:28:44;;;;;;;2.20;2.20;;;10.00;99.90;;;;;;5037306;28;20472;-72
2023/12/24 00:31:11;;;;;;;1.97;1.97;;;9.80;99.90;;;;;;5037127;28;20488;-72
2023/12/24 00:33:37;;;;;;;1.70;1.70;;;9.80;99.90;;;;;;5035567;28;21579;-71
2023/12/24 00:36:05;;;;;;;1.80;1.80;;;9.70;99.90;;;;;;5042310;28;20873;-72
2023/12/24 00:38:33;;;;;;;1.67;1.67;;;9.70;99.90;;;;;;5044506;28;20468;-71
2023/12/24 00:41:00;;;;;;;1.90;1.90;;;9.70;99.90;;;;;;5044873;28;20467;-72
2023/12/24 00:43:27;;;;;;;1.83;1.83;;;9.60;99.90;;;;;;5038304;28;20460;-71
2023/12/24 00:45:54;;;;;;;1.70;1.70;;;9.60;99.90;;;;;;5037271;28;20574;-71
2023/12/24 00:48:21;;;;;;;1.83;1.83;;;9.60;99.90;;;;;;5047824;28;20461;-72
2023/12/24 00:50:48;;;;;;;1.83;1.83;;;9.60;99.90;;;;;;5048304;28;20464;-72
2023/12/24 00:53:14;;;;;;;2.00;2.00;;;9.60;99.90;;;;;;5042850;28;20461;-71
2023/12/24 00:55:43;;;;;;;2.10;2.10;;;9.60;99.90;;;;;;5042269;28;20463;-71
2023/12/24 00:58:10;;;;;;;1.97;1.97;;;9.60;99.90;;;;;;5047580;28;20487;-72
2023/12/24 01:00:37;;;;;;;2.00;2.00;;;9.70;99.90;;;;;;5047876;28;20821;-72
2023/12/24 01:03:04;;;;;;;2.40;2.40;;;9.80;99.90;;;;;;5031726;28;20921;-69
2023/12/24 01:05:31;;;;;;;2.90;2.90;;;9.80;99.90;;;;;;5047401;28;20910;-72
2023/12/24 01:07:59;;;;;;;2.50;2.50;;;9.90;99.90;;;;;;5048105;28;20802;-71
2023/12/24 01:10:26;;;;;;;2.90;2.90;;;9.90;99.90;;;;;;5047962;28;20489;-71
2023/12/24 01:12:54;;;;;;;2.73;2.73;;;9.90;99.90;;;;;;5044639;28;20463;-71
2023/12/24 01:15:21;;;;;;;2.50;2.50;;;9.90;99.90;;;;;;5042095;28;20662;-70
2023/12/24 01:17:48;;;;;;;2.80;2.80;;;10.00;99.90;;;;;;5035530;28;20542;-71
2023/12/24 01:20:16;;;;;;;2.40;2.40;;;10.00;99.90;;;;;;5037533;28;20456;-72
2023/12/24 01:22:43;;;;;;;2.50;2.50;;;10.00;99.90;;;;;;5045520;28;20448;-71
2023/12/24 01:25:10;;;;;;;2.60;2.60;;;10.00;99.90;;;;;;5047731;28;20460;-71
2023/12/24 01:27:37;;;;;;;2.40;2.40;;;10.00;99.90;;;;;;5047171;28;20460;-70
2023/12/24 01:30:07;;;;;;;2.37;2.37;;;10.00;99.90;;;;;;5028962;28;20489;-71
2023/12/24 01:32:34;;;;;;;2.27;2.27;;;9.90;99.90;;;;;;5042681;28;20514;-71
2023/12/24 01:35:01;;;;;;;2.10;2.10;;;9.90;99.90;;;;;;5044854;28;20825;-71
2023/12/24 01:37:28;;;;;;;2.03;2.03;;;9.80;99.90;;;;;;5040847;28;20562;-71
2023/12/24 01:39:55;;;;;;;2.40;2.40;;;9.80;99.90;;;;;;5038802;28;20705;-72
2023/12/24 01:42:22;;;;;;;2.40;2.40;;;9.90;99.90;;;;;;5047186;28;20452;-70
2023/12/24 01:44:49;;;;;;;2.33;2.33;;;9.90;99.90;;;;;;5056954;28;20455;-71
2023/12/24 01:47:19;;;;;;;2.53;2.53;;;9.90;99.90;;;;;;5038966;28;20457;-70
2023/12/24 01:49:46;;;;;;;2.67;2.67;;;9.90;99.90;;;;;;5042274;28;20456;-71
2023/12/24 01:52:13;;;;;;;2.67;2.67;;;10.00;99.90;;;;;;5041883;28;20907;-72
2023/12/24 01:54:40;;;;;;;2.50;2.50;;;9.90;99.90;;;;;;5047277;28;20502;-71
2023/12/24 01:57:08;;;;;;;2.27;2.27;;;9.90;99.90;;;;;;5037558;28;20897;-71
2023/12/24 01:59:35;;;;;;;2.20;2.20;;;9.90;99.90;;;;;;5033160;28;20467;-71
2023/12/24 02:02:04;;;;;;;2.00;2.00;;;9.90;99.90;;;;;;5043076;28;20992;-71
2023/12/24 02:04:33;;;;;;;2.10;2.10;;;9.90;99.90;;;;;;5046520;28;20977;-70
2023/12/24 02:06:59;;;;;;;1.77;1.77;;;9.80;99.90;;;;;;5042224;28;20471;-71
2023/12/24 02:09:26;;;;;;;1.53;1.53;;;9.80;99.90;;;;;;5043214;28;20456;-70
2023/12/24 02:11:53;;;;;;;1.70;1.70;;;9.80;99.90;;;;;;5038859;28;20456;-71
2023/12/24 02:14:20;;;;;;;1.30;1.30;;;9.80;99.90;;;;;;5044231;28;20529;-70
2023/12/24 02:16:48;;;;;;;0.90;0.90;;;9.70;99.90;;;;;;5037407;28;20578;-71
2023/12/24 02:19:18;;;;;;;0.90;0.90;;;9.60;99.90;;;;;;5033956;28;20476;-71
2023/12/24 02:21:46;;;;;;;0.90;0.90;;;9.60;99.90;;;;;;5038224;28;20468;-71
2023/12/24 02:24:13;;;;;;;0.90;0.90;;;9.60;99.90;;;;;;5038515;28;20495;-71
2023/12/24 02:26:47;;;;;;;0.80;0.80;;;9.50;99.90;;;;;;5033010;28;20461;-72
2023/12/24 02:29:19;;;;;;;0.80;0.80;;;9.50;99.90;;;;;;5039116;28;20563;-71
2023/12/24 02:31:48;;;;;;;1.30;1.30;;;9.50;99.90;;;;;;5036515;28;20465;-71
2023/12/24 02:34:19;;;;;;;1.70;1.70;;;9.50;99.90;;;;;;5044890;28;20484;-72
2023/12/24 02:36:48;;;;;;;2.13;2.13;;;9.50;99.90;;;;;;5045994;28;20985;-71
2023/12/24 02:39:16;;;;;;;4.30;4.30;;;9.50;99.90;;;;;;5040819;28;20457;-71
2023/12/24 02:41:43;;;;;;;10.23;10.03;;;9.40;99.90;;;;;;5044669;28;20464;-71
2023/12/24 02:44:11;;;;;;;11.87;11.57;;;9.40;99.90;;;;;;5033408;28;20461;-71
2023/12/24 02:46:38;;;;;;;12.33;12.03;;;9.40;99.90;;;;;;5043352;28;20460;-72
2023/12/24 02:49:05;;;;;;;10.83;10.63;;;9.40;99.90;;;;;;5039937;28;20469;-71
2023/12/24 02:51:32;;;;;;;10.93;10.73;;;9.40;99.90;;;;;;5043645;28;20464;-74
2023/12/24 02:54:01;;;;;;;11.50;11.20;;;9.30;99.90;;;;;;5038483;28;20469;-70
2023/12/24 02:56:36;;;;;;;11.70;11.40;;;9.30;99.90;;;;;;5043840;28;20444;-72
2023/12/24 02:59:03;;;;;;;11.20;11.00;;;9.40;99.90;;;;;;5043989;28;20455;-74
2023/12/24 03:01:29;;;;;;;10.23;10.03;;;9.30;99.90;;;;;;5040931;28;20458;-72
2023/12/24 03:03:57;;;;;;;9.60;9.40;;;9.40;99.90;;;;;;5045841;28;20927;-73
2023/12/24 03:06:24;;;;;;;9.50;9.30;;;9.40;99.90;;;;;;5035234;28;20465;-72
2023/12/24 03:08:50;;;;;;;9.90;9.70;;;9.40;99.90;;;;;;5035142;28;20465;-73
2023/12/24 03:11:19;;;;;;;9.73;9.53;;;9.40;99.90;;;;;;5044538;28;20502;-72
2023/12/24 03:13:45;;;;;;;10.10;9.90;;;9.40;99.90;;;;;;5041992;28;20457;-72
2023/12/24 03:16:12;;;;;;;9.73;9.53;;;9.40;99.90;;;;;;5040576;28;20459;-73
2023/12/24 03:18:40;;;;;;;9.43;9.23;;;9.40;99.90;;;;;;5037863;28;20488;-73
2023/12/24 03:21:08;;;;;;;10.03;9.83;;;9.40;99.90;;;;;;5024414;28;20548;-72
2023/12/24 03:23:35;;;;;;;9.50;9.30;;;9.40;99.90;;;;;;5042147;28;20566;-76
2023/12/24 03:26:03;;;;;;;9.23;9.03;;;9.40;99.90;;;;;;5044472;28;20460;-72
2023/12/24 03:28:32;;;;;;;9.30;9.10;;;9.40;99.90;;;;;;5040833;28;20522;-72
2023/12/24 03:30:59;;;;;;;9.30;9.10;;;9.40;99.90;;;;;;5045581;28;20538;-76
2023/12/24 03:33:25;;;;;;;10.13;9.93;;;9.50;99.90;;;;;;5045376;28;20472;-71
2023/12/24 03:35:52;;;;;;;10.30;10.10;;;9.40;99.90;;;;;;5026995;28;20463;-75
2023/12/24 03:38:20;;;;;;;10.03;9.83;;;9.50;99.90;;;;;;5028788;28;20508;-72
2023/12/24 03:40:47;;;;;;;10.20;10.00;;;9.50;99.90;;;;;;5041273;28;20460;-72
2023/12/24 03:43:14;;;;;;;9.90;9.70;;;9.40;99.90;;;;;;5038563;28;20879;-73
2023/12/24 03:45:43;;;;;;;9.97;9.77;;;9.50;99.90;;;;;;5044819;28;20805;-72
2023/12/24 03:48:11;;;;;;;9.70;9.50;;;9.50;99.90;;;;;;5040715;28;20472;-74
2023/12/24 03:50:38;;;;;;;9.90;9.70;;;9.50;99.90;;;;;;5044009;28;20460;-72
2023/12/24 03:53:06;;;;;;;10.07;9.87;;;9.50;99.90;;;;;;5045550;28;20805;-75
2023/12/24 03:55:33;;;;;;;10.27;10.07;;;9.50;99.90;;;;;;5026476;28;20515;-74
2023/12/24 03:58:00;;;;;;;9.57;9.37;;;9.50;99.90;;;;;;5040310;28;20557;-73
2023/12/24 04:00:27;;;;;;;10.47;10.27;;;9.50;99.90;;;;;;5049116;28;20505;-72
2023/12/24 04:02:56;;;;;;;9.07;8.97;;;9.60;99.90;;;;;;5049041;28;20456;-72
2023/12/24 04:05:23;;;;;;;8.10;8.00;;;9.50;99.90;;;;;;5039183;28;20464;-72
2023/12/24 04:07:51;;;;;;;8.70;8.60;;;9.50;99.90;;;;;;5038973;28;20808;-73
2023/12/24 04:10:17;;;;;;;7.67;7.57;;;9.50;99.90;;;;;;5045564;28;20471;-71
2023/12/24 04:12:44;;;;;;;8.43;8.33;;;9.50;99.90;;;;;;5045916;28;20536;-72
2023/12/24 04:15:12;;;;;;;8.00;7.90;;;9.50;99.90;;;;;;5039283;28;20834;-72
2023/12/24 04:17:39;;;;;;;8.50;8.40;;;9.50;99.90;;;;;;5048712;28;20481;-73
2023/12/24 04:20:09;;;;;;;9.00;8.90;;;9.50;99.90;;;;;;5038719;28;21091;-72
2023/12/24 04:22:36;;;;;;;8.73;8.63;;;9.60;99.90;;;;;;5045239;28;20511;-71
2023/12/24 04:25:04;;;;;;;8.77;8.67;;;9.50;99.90;;;;;;5041757;28;20480;-71
2023/12/24 04:27:32;;;;;;;8.47;8.37;;;9.50;99.90;;;;;;5042534;28;20990;-73
2023/12/24 04:29:58;;;;;;;8.80;8.70;;;9.50;99.90;;;;;;5048605;28;20468;-72
2023/12/24 04:32:25;;;;;;;9.73;9.53;;;9.50;99.90;;;;;;5038795;28;20453;-75
2023/12/24 04:34:52;;;;;;;10.10;9.90;;;9.50;99.90;;;;;;5043594;28;20907;-72
2023/12/24 04:37:20;;;;;;;9.90;9.70;;;9.50;99.90;;;;;;5042124;28;20483;-71
2023/12/24 04:39:47;;;;;;;8.87;8.77;;;9.50;99.90;;;;;;5038715;28;20812;-71
2023/12/24 04:42:14;;;;;;;9.40;9.20;;;9.50;99.90;;;;;;5046083;28;20469;-71
2023/12/24 04:44:41;;;;;;;9.40;9.20;;;9.50;99.90;;;;;;5048271;28;20460;-72
2023/12/24 04:47:08;;;;;;;9.43;9.23;;;9.50;99.90;;;;;;5038630;28;20468;-72
2023/12/24 04:49:35;;;;;;;9.10;8.97;;;9.50;99.90;;;;;;5048578;28;20461;-72
2023/12/24 04:52:02;;;;;;;8.90;8.80;;;9.50;99.90;;;;;;5048585;28;20460;-73
2023/12/24 04:54:30;;;;;;;8.87;8.77;;;9.50;99.90;;;;;;5036857;28;20903;-76
2023/12/24 04:56:58;;;;;;;9.07;8.97;;;9.50;99.90;;;;;;5047579;28;20449;-73
2023/12/24 04:59:24;;;;;;;8.80;8.70;;;9.50;99.90;;;;;;5047739;28;20510;-72
2023/12/24 05:01:51;;;;;;;8.50;8.40;;;9.40;99.90;;;;;;5044815;28;20460;-75
2023/12/24 05:04:18;;;;;;;8.10;8.00;;;9.40;99.90;;;;;;5039566;28;20525;-73
2023/12/24 05:06:45;;;;;;;7.60;7.50;;;9.40;99.90;;;;;;5036333;28;20954;-71
2023/12/24 05:09:11;;;;;;;7.77;7.67;;;9.50;99.90;;;;;;5042045;28;20457;-73
2023/12/24 05:11:41;;;;;;;8.77;8.67;;;9.40;99.90;;;;;;5047289;28;20464;-73
2023/12/24 05:14:08;;;;;;;8.20;8.10;;;9.40;99.90;;;;;;5040249;28;20479;-74
2023/12/24 05:16:35;;;;;;;7.83;7.73;;;9.40;99.90;;;;;;5047624;28;20455;-74
2023/12/24 05:19:02;;;;;;;8.00;7.90;;;9.40;99.90;;;;;;5047885;28;20499;-76
2023/12/24 05:21:29;;;;;;;7.53;7.43;;;9.40;99.90;;;;;;5038853;28;20798;-72
2023/12/24 05:23:57;;;;;;;8.23;8.13;;;9.50;99.90;;;;;;5037449;28;21390;-72
2023/12/24 05:26:25;;;;;;;7.47;7.37;;;9.50;99.90;;;;;;5037379;28;20521;-72
2023/12/24 05:28:54;;;;;;;6.83;6.73;;;9.50;99.90;;;;;;5047133;28;20527;-72
2023/12/24 05:31:21;;;;;;;7.10;7.00;;;9.40;99.90;;;;;;5042463;28;20804;-72
2023/12/24 05:33:48;;;;;;;7.10;7.00;;;9.40;99.90;;;;;;5032227;28;20477;-73
2023/12/24 05:36:15;;;;;;;7.00;6.90;;;9.40;99.90;;;;;;5039289;28;20460;-74
2023/12/24 05:38:42;;;;;;;7.00;6.90;;;9.40;99.90;;;;;;5034969;28;20499;-75
2023/12/24 05:41:10;;;;;;;6.77;6.67;;;9.40;99.90;;;;;;5044621;28;20456;-75
2023/12/24 05:43:37;;;;;;;7.00;6.90;;;9.50;99.90;;;;;;5042976;28;20531;-73
2023/12/24 05:46:13;;;;;;;6.37;6.27;;;9.40;99.90;;;;;;5047235;28;20456;-73
2023/12/24 05:48:40;;;;;;;6.73;6.63;;;9.50;99.90;;;;;;5034376;28;20460;-76
2023/12/24 05:51:07;;;;;;;6.83;6.73;;;9.50;99.90;;;;;;5038982;28;20477;-72
2023/12/24 05:53:34;;;;;;;6.50;6.40;;;9.50;99.90;;;;;;5036474;28;20467;-75
2023/12/24 05:56:01;;;;;;;6.60;6.50;;;9.50;99.90;;;;;;5040656;28;20508;-71
2023/12/24 05:58:28;;;;;;;6.13;6.03;;;9.50;99.90;;;;;;5036365;28;20483;-74
2023/12/24 06:00:55;;;;;;;6.83;6.73;;;9.50;99.90;;;;;;5047057;28;20966;-72
2023/12/24 06:03:24;;;;;;;7.03;6.93;;;9.60;99.90;;;;;;5042994;28;20908;-76
2023/12/24 06:05:51;;;;;;;6.60;6.50;;;9.60;99.90;;;;;;5036131;28;20483;-72
2023/12/24 06:08:21;;;;;;;6.70;6.60;;;9.60;99.90;;;;;;5037486;28;20464;-72
2023/12/24 06:10:48;;;;;;;5.90;5.80;;;9.60;99.90;;;;;;5045246;28;20796;-72
2023/12/24 06:13:15;;;;;;;7.00;6.90;;;9.60;99.90;;;;;;5043138;28;20467;-71
2023/12/24 06:15:42;;;;;;;6.57;6.47;;;9.70;99.90;;;;;;5034125;28;20479;-73
2023/12/24 06:18:10;;;;;;;6.27;6.17;;;9.70;99.90;;;;;;5038534;28;20492;-72
2023/12/24 06:20:39;;;;;;;7.17;7.07;;;9.70;99.90;;;;;;5038356;28;20461;-71
2023/12/24 06:23:06;;;;;;;7.17;7.07;;;9.70;99.90;;;;;;5041920;28;20800;-71
2023/12/24 06:25:34;;;;;;;7.30;7.20;;;9.70;99.90;;;;;;5036086;28;20464;-72
2023/12/24 06:28:01;;;;;;;6.60;6.50;;;9.70;99.90;;;;;;5046242;28;20456;-72
2023/12/24 06:30:28;;;;;;;7.37;7.27;;;9.70;99.90;;;;;;5046027;28;20480;-71
2023/12/24 06:32:55;;;;;;;7.07;6.97;;;9.70;99.90;;;;;;5041854;28;20462;-72
2023/12/24 06:35:22;;;;;;;7.57;7.47;;;9.70;99.90;;;;;;5038079;28;20988;-72
2023/12/24 06:37:51;;;;;;;7.70;7.60;;;9.70;99.90;;;;;;5046245;28;20448;-71
2023/12/24 06:40:18;;;;;;;7.60;7.50;;;9.70;99.90;;;;;;5038453;28;20547;-72
2023/12/24 06:42:45;;;;;;;7.40;7.30;;;9.70;99.90;;;;;;5039792;28;20459;-72
2023/12/24 06:45:12;;;;;;;7.13;7.03;;;9.70;99.90;;;;;;5029324;28;20999;-72
2023/12/24 06:47:40;;;;;;;6.87;6.77;;;9.70;99.90;;;;;;5041972;28;20464;-72
2023/12/24 06:50:07;;;;;;;7.03;6.93;;;9.80;99.90;;;;;;5045363;28;20468;-72
2023/12/24 06:52:34;;;;;;;6.70;6.60;;;9.80;99.90;;;;;;5042481;28;20456;-72
2023/12/24 06:55:03;;;;;;;6.47;6.37;;;9.80;99.90;;;;;;5034360;28;20461;-73
2023/12/24 06:57:32;;;;;;;6.53;6.43;;;9.80;99.90;;;;;;5037078;28;20580;-72
2023/12/24 06:59:59;;;;;;;7.23;7.13;;;9.80;99.90;;;;;;5044893;28;20484;-73
2023/12/24 07:02:26;;;;;;;6.10;6.00;;;9.80;99.90;;;;;;5038661;28;20465;-75
2023/12/24 07:04:53;;;;;;;6.30;6.20;;;9.80;99.90;;;;;;5045939;28;20942;-74
2023/12/24 07:07:21;;;;;;;7.17;7.07;;;9.80;99.90;;;;;;5046176;28;20469;-73
2023/12/24 07:09:48;;;;;;;7.20;7.10;;;9.80;99.90;;;;;;5039973;28;20556;-72
2023/12/24 07:12:16;;;;;;;7.57;7.47;;;9.80;99.90;;;;;;5028206;28;20470;-72
2023/12/24 07:14:43;;;;;;;7.53;7.43;;;9.90;99.90;;;;;;5038918;28;20938;-75
2023/12/24 07:17:10;;;;;;;7.07;6.97;;;9.80;99.90;;;;;;5040086;28;20841;-75
2023/12/24 07:19:37;;;;;;;7.37;7.27;;;9.80;99.90;;;;;;5046231;28;20492;-72
2023/12/24 07:22:04;;;;;;;7.83;7.73;;;9.90;99.90;;;;;;5034457;28;20511;-73
2023/12/24 07:24:30;;;;;;;7.00;6.90;;;9.90;99.90;;;;;;5034157;28;20456;-72
2023/12/24 07:26:57;;;;;;;7.27;7.17;;;9.90;99.90;;;;;;5042338;28;20515;-74
2023/12/24 07:29:25;;;;;;;7.50;7.40;;;9.90;99.90;;;;;;5045630;28;20234;-72
2023/12/24 07:31:52;;;;;;;7.00;6.90;;;9.90;99.90;;;;;;5042902;28;21060;-72
2023/12/24 07:34:20;;;;;;;7.27;7.17;;;9.80;99.90;;;;;;5037061;28;20486;-72
2023/12/24 07:36:47;;;;;;;6.83;6.73;;;9.80;99.90;;;;;;5044271;28;20476;-77
2023/12/24 07:39:14;;;;;;;7.30;7.20;;;9.80;99.90;;;;;;5039075;28;21018;-75
2023/12/24 07:41:42;;;;;;;7.20;7.10;;;9.80;99.90;;;;;;5045510;28;20468;-76
2023/12/24 07:44:09;;;;;;;7.23;7.13;;;9.80;99.90;;;;;;5049702;28;20460;-73
2023/12/24 07:46:38;;;;;;;7.30;7.20;;;9.80;99.90;;;;;;5035324;28;20563;-74
2023/12/24 07:49:05;;;;;;;7.47;7.37;;;9.80;99.90;;;;;;5036906;28;20817;-73
2023/12/24 07:51:33;;;;;;;8.33;8.23;;;9.80;99.90;;;;;;5042176;28;20497;-72
2023/12/24 07:54:00;;;;;;;7.57;7.47;;;9.90;99.90;;;;;;5050176;28;20551;-73
2023/12/24 07:56:27;;;;;;;7.60;7.50;;;9.80;99.90;;;;;;5035615;28;20844;-70
2023/12/24 07:58:54;;;;;;;7.70;7.60;;;9.80;99.90;;;;;;5048678;28;20491;-72
2023/12/24 08:01:21;;;;;;;7.97;7.87;;;9.80;99.90;;;;;;5037308;28;20460;-74
2023/12/24 08:03:49;;;;;;;7.40;7.30;;;9.90;99.90;;;;;;5044801;28;20464;-73
2023/12/24 08:06:19;;;;;;;7.50;7.40;;;9.90;99.90;;;;;;5038710;28;20650;-72
2023/12/24 08:08:45;;;;;;;7.43;7.33;;;9.90;99.90;;;;;;5045334;28;20563;-72
2023/12/24 08:11:12;;;;;;;7.40;7.30;;;9.90;99.90;;;;;;5049057;28;20580;-71
2023/12/24 08:13:39;;;;;;;7.37;7.27;;;9.90;99.90;;;;;;5040559;28;20472;-75
2023/12/24 08:16:06;;;;;;;6.57;6.47;;;9.90;99.90;;;;;;5042989;28;20934;-72
2023/12/24 08:18:33;;;;;;;7.00;6.90;;;9.90;99.90;;;;;;5048684;28;20512;-73
2023/12/24 08:21:02;;;;;;;6.97;6.87;;;10.00;99.90;;;;;;5039691;28;20468;-71
2023/12/24 08:23:29;;;;;;;7.33;7.23;;;10.00;99.90;;;;;;5033975;28;20473;-71
2023/12/24 08:25:56;;;;;;;7.50;7.40;;;10.00;99.90;;;;;;5041356;28;20548;-72
2023/12/24 08:28:22;;;;;;;7.47;7.37;;;10.00;99.90;;;;;;5049713;28;20468;-73
2023/12/24 08:30:49;;;;;;;7.10;7.00;;;10.00;99.90;;;;;;5048604;28;20460;-74
2023/12/24 08:33:16;;;;;;;7.77;7.67;;;10.00;99.90;;;;;;5047886;28;20460;-72
2023/12/24 08:35:44;;;;;;;8.10;8.00;;;9.90;99.90;;;;;;5032091;28;20480;-73
2023/12/24 08:40:54;;;;;;;7.77;7.67;;;9.90;99.90;;;;;;5049216;28;20460;-73
2023/12/24 08:43:21;;;;;;;7.20;7.10;;;9.90;99.90;;;;;;5040139;28;20472;-73
2023/12/24 08:45:51;;;;;;;8.00;7.90;;;9.90;99.90;;;;;;5040202;28;20484;-73
2023/12/24 08:48:18;;;;;;;7.40;7.30;;;9.90;99.90;;;;;;5040095;28;20465;-75
2023/12/24 08:50:45;;;;;;;6.90;6.80;;;9.90;99.90;;;;;;5043134;28;20936;-74
2023/12/24 08:53:14;;;;;;;7.27;7.17;;;10.00;99.90;;;;;;5046734;28;21092;-72
2023/12/24 08:55:41;;;;;;;6.90;6.80;;;10.00;99.90;;;;;;5045071;28;20460;-72
2023/12/24 08:58:08;;;;;;;6.80;6.70;;;10.00;99.90;;;;;;5039167;28;20825;-72
2023/12/24 09:00:35;;;;;;;6.03;5.93;;;10.00;99.90;;;;;;5042106;28;20488;-71
2023/12/24 09:03:03;;;;;;;6.70;6.60;;;10.10;99.90;;;;;;5035120;28;20487;-73
2023/12/24 09:05:30;;;;;;;7.07;6.97;;;10.10;99.90;;;;;;5045657;28;20459;-74
2023/12/24 09:07:56;;;;;;;6.63;6.53;;;10.10;99.90;;;;;;5036817;28;20456;-72
2023/12/24 09:10:25;;;;;;;7.57;7.47;;;10.10;99.90;;;;;;5047815;28;20796;-71
2023/12/24 09:12:52;;;;;;;7.20;7.10;;;10.10;99.90;;;;;;5040336;28;20477;-74
2023/12/24 09:15:19;;;;;;;7.67;7.57;;;10.20;99.90;;;;;;5040949;28;20478;-72
2023/12/24 09:17:46;;;;;;;7.47;7.37;;;10.10;99.90;;;;;;5047469;28;20456;-72
2023/12/24 09:20:13;;;;;;;7.20;7.10;;;10.20;99.90;;;;;;5037563;28;20481;-72
2023/12/24 09:22:39;;;;;;;6.90;6.80;;;10.20;99.90;;;;;;5040942;28;20471;-72
2023/12/24 09:25:07;;;;;;;7.10;7.00;;;10.30;99.90;;;;;;5041281;28;20470;-72
2023/12/24 09:27:36;;;;;;;6.83;6.73;;;10.30;99.90;;;;;;5039938;28;20457;-72
2023/12/24 09:30:04;;;;;;;6.90;6.80;;;10.30;99.90;;;;;;5040828;28;20497;-72
2023/12/24 09:32:31;;;;;;;6.67;6.57;;;10.30;99.90;;;;;;5047198;28;20444;-72
2023/12/24 09:34:58;;;;;;;6.63;6.53;;;10.30;99.90;;;;;;5040107;28;20542;-73
2023/12/24 09:37:25;;;;;;;6.90;6.80;;;10.30;99.90;;;;;;5028661;28;20850;-75
2023/12/24 09:39:53;;;;;;;6.67;6.57;;;10.30;99.90;;;;;;5040833;28;20488;-73
2023/12/24 09:42:20;;;;;;;6.63;6.53;;;10.30;99.90;;;;;;5045788;28;20579;-72
2023/12/24 09:44:48;;;;;;;7.07;6.97;;;10.30;99.90;;;;;;5039382;28;20465;-75
2023/12/24 09:47:15;;;;;;;6.23;6.13;;;10.30;99.90;;;;;;5046884;28;20452;-74
2023/12/24 09:49:42;;;;;;;6.30;6.20;;;10.30;99.90;;;;;;5044697;28;20510;-71
2023/12/24 09:52:09;;;;;;;6.53;6.43;;;10.30;99.90;;;;;;5031731;28;20472;-72
2023/12/24 09:54:36;;;;;;;6.77;6.67;;;10.40;99.90;;;;;;5042790;28;20463;-72
2023/12/24 09:57:03;;;;;;;7.17;7.07;;;10.40;99.90;;;;;;5044666;28;20470;-72
2023/12/24 09:59:29;;;;;;;7.17;7.07;;;10.40;99.90;;;;;;5047166;28;20998;-72
2023/12/24 10:01:58;;;;;;;7.27;7.17;;;10.40;99.90;;;;;;5041325;28;20450;-72
2023/12/24 10:04:24;;;;;;;7.37;7.27;;;10.40;99.90;;;;;;5037528;28;20460;-74
2023/12/24 10:06:54;;;;;;;6.87;6.77;;;10.40;99.90;;;;;;5041699;28;20972;-72
2023/12/24 10:09:23;;;;;;;7.67;7.57;;;10.50;99.90;;;;;;5042123;28;20459;-72
2023/12/24 10:12:04;;;;;;;7.70;7.60;;;10.50;99.90;;;;;;5031299;28;20466;-73
2023/12/24 10:14:31;;;;;;;7.27;7.17;;;10.50;99.90;;;;;;5044313;28;20885;-74
2023/12/24 10:17:00;;;;;;;7.53;7.43;;;10.50;99.90;;;;;;5047171;28;20496;-72
2023/12/24 10:19:28;;;;;;;7.87;7.77;;;10.50;99.90;;;;;;5034860;28;21087;-73
2023/12/24 10:22:05;;;;;;;7.90;7.80;;;10.50;99.90;;;;;;5036483;28;20511;-74
2023/12/24 10:24:34;;;;;;;7.30;7.20;;;10.50;99.90;;;;;;5036459;28;20847;-72
2023/12/24 10:27:05;;;;;;;7.43;7.33;;;10.40;99.90;;;;;;5044506;28;20525;-73
2023/12/24 10:29:33;;;;;;;7.20;7.10;;;10.50;99.90;;;;;;5036199;28;21014;-72
2023/12/24 10:32:02;;;;;;;7.77;7.67;;;10.50;99.90;;;;;;5036823;28;20484;-72
2023/12/24 10:34:30;;;;;;;8.03;7.93;;;10.50;99.90;;;;;;5045823;28;20983;-75
2023/12/24 10:37:00;;;;;;;7.23;7.13;;;10.50;99.90;;;;;;5041513;28;20452;-71
2023/12/24 10:39:27;;;;;;;7.20;7.10;;;10.40;99.90;;;;;;5030612;28;20786;-70
2023/12/24 10:41:56;;;;;;;6.73;6.63;;;10.50;99.90;;;;;;5044706;28;20815;-72
2023/12/24 10:44:23;;;;;;;8.27;8.17;;;10.50;99.90;;;;;;5047347;28;20548;-72
2023/12/24 10:46:51;;;;;;;7.57;7.47;;;10.50;99.90;;;;;;5035750;28;20469;-72
2023/12/24 10:49:20;;;;;;;7.77;7.67;;;10.60;99.90;;;;;;5047069;28;20458;-73
2023/12/24 10:51:47;;;;;;;8.13;8.03;;;10.60;99.90;;;;;;5043407;28;20521;-71
2023/12/24 10:54:15;;;;;;;8.13;8.03;;;10.60;99.90;;;;;;5040755;28;20471;-72
2023/12/24 10:56:55;;;;;;;8.50;8.40;;;10.60;99.90;;;;;;5041853;28;20916;-72
2023/12/24 10:59:32;;;;;;;8.70;8.60;;;10.60;99.90;;;;;;5046285;28;20484;-73
2023/12/24 11:02:00;;;;;;;7.83;7.73;;;10.60;99.90;;;;;;5043918;28;20448;-72
2023/12/24 11:04:44;;;;;;;8.17;8.07;;;10.70;99.90;;;;;;5030957;28;20837;-73
2023/12/24 11:07:33;;;;;;;8.40;8.30;;;10.60;99.90;;;;;;5033677;28;20452;-73
2023/12/24 11:10:00;;;;;;;7.97;7.87;;;10.60;99.90;;;;;;5037314;28;20466;-73
2023/12/24 11:12:31;;;;;;;8.37;8.27;;;10.60;99.90;;;;;;5039098;28;20862;-73
2023/12/24 11:14:57;;;;;;;7.90;7.80;;;10.70;99.90;;;;;;5037834;28;20468;-72
2023/12/24 11:17:49;;;;;;;8.57;8.47;;;10.60;99.90;;;;;;5033999;28;20782;-73
2023/12/24 11:20:40;;;;;;;8.90;8.80;;;10.60;99.90;;;;;;5043184;28;20496;-73
2023/12/24 11:23:10;;;;;;;8.10;8.00;;;10.70;99.90;;;;;;5041484;28;20496;-73
2023/12/24 11:25:38;;;;;;;8.83;8.73;;;10.70;99.90;;;;;;5042022;28;20469;-76
2023/12/24 11:28:09;;;;;;;8.17;8.07;;;10.70;99.90;;;;;;5035617;28;20950;-75
2023/12/24 11:31:04;;;;;;;8.60;8.50;;;10.70;99.90;;;;;;5043856;28;20516;-72
2023/12/24 11:33:50;;;;;;;7.87;7.77;;;10.70;99.90;;;;;;5038885;28;20460;-76
2023/12/24 11:36:19;;;;;;;7.87;7.77;;;10.80;99.90;;;;;;5040541;28;21672;-73
2023/12/24 11:38:47;;;;;;;8.37;8.27;;;10.80;99.90;;;;;;5039841;28;20466;-72
2023/12/24 11:41:16;;;;;;;8.13;8.03;;;10.80;99.90;;;;;;5027355;28;20987;-71
2023/12/24 11:43:51;;;;;;;8.00;7.90;;;10.80;99.90;;;;;;5042347;28;20885;-73
2023/12/24 11:46:18;;;;;;;8.80;8.70;;;10.80;99.90;;;;;;5041444;28;20475;-73
2023/12/24 11:48:45;;;;;;;8.63;8.53;;;10.90;99.90;;;;;;5039760;28;20473;-72
2023/12/24 11:51:12;;;;;;;9.13;9.03;;;10.90;99.90;;;;;;5031332;28;21073;-73
2023/12/24 11:53:42;;;;;;;9.10;9.00;;;10.90;99.90;;;;;;5043011;28;20461;-70
2023/12/24 11:56:11;;;;;;;9.80;9.60;;;10.90;99.90;;;;;;5045772;28;20864;-72
2023/12/24 11:58:38;;;;;;;10.50;10.30;;;11.00;99.90;;;;;;5037072;28;20452;-73
2023/12/24 12:01:05;;;;;;;10.03;9.83;;;11.00;99.90;;;;;;5044690;28;20472;-73
2023/12/24 12:03:33;;;;;;;8.87;8.77;;;11.00;99.90;;;;;;5046051;28;20454;-73
2023/12/24 12:06:00;;;;;;;9.03;8.93;;;11.00;99.90;;;;;;5033021;28;20461;-75
2023/12/24 12:08:28;;;;;;;8.60;8.50;;;10.90;99.90;;;;;;5034342;28;20476;-74
2023/12/24 12:10:56;;;;;;;8.00;7.90;;;10.90;99.90;;;;;;5042576;28;20465;-73
2023/12/24 12:13:24;;;;;;;7.93;7.83;;;10.80;99.90;;;;;;5042175;28;20460;-73
2023/12/24 12:15:51;;;;;;;6.17;6.07;;;10.80;99.90;;;;;;5044940;28;20452;-78
2023/12/24 12:18:18;;;;;;;6.77;6.67;;;10.80;99.90;;;;;;5044912;28;20982;-77
2023/12/24 12:20:45;;;;;;;6.40;6.30;;;10.80;99.90;;;;;;5042466;28;20995;-74
2023/12/24 12:23:12;;;;;;;6.80;6.70;;;10.80;99.90;;;;;;5039572;28;20456;-74
2023/12/24 12:25:40;;;;;;;6.37;6.27;;;10.80;99.90;;;;;;5048021;28;20454;-75
2023/12/24 12:28:09;;;;;;;6.60;6.50;;;10.80;99.90;;;;;;5044956;28;20492;-77
2023/12/24 12:30:36;;;;;;;7.03;6.93;;;10.80;99.90;;;;;;5046738;28;20474;-73
2023/12/24 12:33:03;;;;;;;7.20;7.10;;;10.80;99.90;;;;;;5048758;28;20469;-73
2023/12/24 12:35:30;;;;;;;6.03;5.93;;;10.80;99.90;;;;;;5037233;28;20834;-75
2023/12/24 12:37:57;;;;;;;6.27;6.17;;;10.80;99.90;;;;;;5048915;28;20821;-73
2023/12/24 12:40:24;;;;;;;6.00;5.90;;;10.80;99.90;;;;;;5041333;28;20483;-73
2023/12/24 12:42:50;;;;;;;6.27;6.17;;;10.90;99.90;;;;;;5029556;28;20471;-73
2023/12/24 12:45:19;;;;;;;6.87;6.77;;;10.90;99.90;;;;;;5047855;28;20460;-75
2023/12/24 12:47:46;;;;;;;6.50;6.40;;;10.90;99.90;;;;;;5039903;28;20471;-74
2023/12/24 12:50:14;;;;;;;7.40;7.30;;;10.90;99.90;;;;;;5048389;28;20461;-73
2023/12/24 12:52:41;;;;;;;6.17;6.07;;;10.90;99.90;;;;;;5042116;28;20464;-75
2023/12/24 12:55:11;;;;;;;5.93;5.83;;;10.90;99.90;;;;;;5041128;28;20463;-73
2023/12/24 12:57:38;;;;;;;5.63;5.53;;;10.90;99.90;;;;;;5048069;28;20452;-72
2023/12/24 13:00:09;;;;;;;6.10;6.00;;;11.00;99.90;;;;;;5046317;28;20475;-72